Terminal Aerodrome Forecast
Issued by NWS Sioux Falls, SD

Home | Current Version | Previous Version | Text Only | Print | Product List | Glossary On
Versions: 1 2 3 4 5 6 7 8 9 10 11 12 13 14 15
000
FTUS43 KFSD 181138
TAFFSD
TAF
KFSD 181138Z 1812/1912 17011KT P6SM BKN150
     FM181500 16015G24KT P6SM SCT100 BKN200
     FM182000 18011KT P6SM SCT045 BKN150
     FM190100 14009KT P6SM SCT050 BKN120
     FM190300 06006KT P6SM VCSH BKN090
     FM190500 04007KT 5SM -TSRA BKN035CB OVC090
     FM190900 03010KT 5SM -SHRA OVC015=

USA.gov is the U.S. government's official web portal to all federal, state and local government web resources and services.